sensor_id;sensor_type;location;lat;lon;timestamp;P1;durP1;ratioP1;P2;durP2;ratioP2
42912;SDS011;50720;54.324;18.558;2023-12-29T00:01:14;11.00;;;3.58;;
42912;SDS011;50720;54.324;18.558;2023-12-29T00:04:00;7.15;;;2.28;;
42912;SDS011;50720;54.324;18.558;2023-12-29T00:06:44;9.20;;;3.25;;
42912;SDS011;50720;54.324;18.558;2023-12-29T00:09:41;8.20;;;2.78;;
42912;SDS011;50720;54.324;18.558;2023-12-29T00:12:25;7.32;;;3.38;;
42912;SDS011;50720;54.324;18.558;2023-12-29T00:15:09;5.22;;;2.10;;
42912;SDS011;50720;54.324;18.558;2023-12-29T00:17:52;8.68;;;2.40;;
42912;SDS011;50720;54.324;18.558;2023-12-29T00:20:36;7.72;;;2.25;;
42912;SDS011;50720;54.324;18.558;2023-12-29T00:23:22;6.05;;;2.33;;
42912;SDS011;50720;54.324;18.558;2023-12-29T00:26:07;8.77;;;3.47;;
42912;SDS011;50720;54.324;18.558;2023-12-29T00:28:51;4.35;;;2.20;;
42912;SDS011;50720;54.324;18.558;2023-12-29T00:31:35;4.60;;;2.25;;
42912;SDS011;50720;54.324;18.558;2023-12-29T00:34:18;5.82;;;2.35;;
42912;SDS011;50720;54.324;18.558;2023-12-29T00:37:02;5.65;;;2.05;;
42912;SDS011;50720;54.324;18.558;2023-12-29T00:39:46;6.97;;;2.50;;
42912;SDS011;50720;54.324;18.558;2023-12-29T00:42:31;3.63;;;2.42;;
42912;SDS011;50720;54.324;18.558;2023-12-29T00:45:15;6.57;;;3.00;;
42912;SDS011;50720;54.324;18.558;2023-12-29T00:47:58;8.25;;;2.15;;
42912;SDS011;50720;54.324;18.558;2023-12-29T00:50:43;6.63;;;2.38;;
42912;SDS011;50720;54.324;18.558;2023-12-29T00:53:27;6.47;;;2.58;;
42912;SDS011;50720;54.324;18.558;2023-12-29T00:56:12;3.42;;;2.08;;
42912;SDS011;50720;54.324;18.558;2023-12-29T00:58:57;8.10;;;2.40;;
42912;SDS011;50720;54.324;18.558;2023-12-29T01:01:41;4.85;;;2.08;;
42912;SDS011;50720;54.324;18.558;2023-12-29T01:04:26;12.85;;;2.70;;
42912;SDS011;50720;54.324;18.558;2023-12-29T01:07:10;4.85;;;2.17;;
42912;SDS011;50720;54.324;18.558;2023-12-29T01:09:54;2.92;;;2.08;;
42912;SDS011;50720;54.324;18.558;2023-12-29T01:12:38;4.22;;;2.20;;
42912;SDS011;50720;54.324;18.558;2023-12-29T01:15:24;16.83;;;2.35;;
42912;SDS011;50720;54.324;18.558;2023-12-29T01:18:07;4.95;;;2.28;;
42912;SDS011;50720;54.324;18.558;2023-12-29T01:20:51;5.60;;;2.20;;
42912;SDS011;50720;54.324;18.558;2023-12-29T01:23:34;3.53;;;2.13;;
42912;SDS011;50720;54.324;18.558;2023-12-29T01:26:18;10.95;;;3.20;;
42912;SDS011;50720;54.324;18.558;2023-12-29T01:29:02;4.97;;;2.60;;
42912;SDS011;50720;54.324;18.558;2023-12-29T01:31:47;8.50;;;2.40;;
42912;SDS011;50720;54.324;18.558;2023-12-29T01:34:30;4.68;;;3.00;;
42912;SDS011;50720;54.324;18.558;2023-12-29T01:37:15;7.95;;;2.60;;
42912;SDS011;50720;54.324;18.558;2023-12-29T01:39:59;6.57;;;4.15;;
42912;SDS011;50720;54.324;18.558;2023-12-29T01:42:42;7.20;;;2.13;;
42912;SDS011;50720;54.324;18.558;2023-12-29T01:45:26;8.05;;;2.65;;
42912;SDS011;50720;54.324;18.558;2023-12-29T01:48:11;5.75;;;2.53;;
42912;SDS011;50720;54.324;18.558;2023-12-29T01:50:55;5.75;;;2.33;;
42912;SDS011;50720;54.324;18.558;2023-12-29T01:53:39;9.38;;;2.83;;
42912;SDS011;50720;54.324;18.558;2023-12-29T01:56:29;6.32;;;2.50;;
42912;SDS011;50720;54.324;18.558;2023-12-29T01:59:13;8.05;;;2.72;;
42912;SDS011;50720;54.324;18.558;2023-12-29T02:02:06;6.55;;;2.53;;
42912;SDS011;50720;54.324;18.558;2023-12-29T02:04:52;7.00;;;2.58;;
42912;SDS011;50720;54.324;18.558;2023-12-29T02:07:36;5.40;;;2.80;;
42912;SDS011;50720;54.324;18.558;2023-12-29T02:10:20;4.95;;;2.50;;
42912;SDS011;50720;54.324;18.558;2023-12-29T02:13:04;5.95;;;2.72;;
42912;SDS011;50720;54.324;18.558;2023-12-29T02:15:48;5.95;;;2.60;;
42912;SDS011;50720;54.324;18.558;2023-12-29T02:18:33;4.00;;;2.20;;
42912;SDS011;50720;54.324;18.558;2023-12-29T02:21:24;6.47;;;2.25;;
42912;SDS011;50720;54.324;18.558;2023-12-29T02:24:08;5.93;;;2.72;;
42912;SDS011;50720;54.324;18.558;2023-12-29T02:26:54;5.72;;;2.47;;
42912;SDS011;50720;54.324;18.558;2023-12-29T02:29:40;3.97;;;2.50;;
42912;SDS011;50720;54.324;18.558;2023-12-29T02:32:28;4.47;;;2.15;;
42912;SDS011;50720;54.324;18.558;2023-12-29T02:35:16;5.38;;;2.35;;
42912;SDS011;50720;54.324;18.558;2023-12-29T02:38:01;5.50;;;2.65;;
42912;SDS011;50720;54.324;18.558;2023-12-29T02:40:45;4.22;;;2.80;;
42912;SDS011;50720;54.324;18.558;2023-12-29T02:43:32;5.03;;;2.28;;
42912;SDS011;50720;54.324;18.558;2023-12-29T02:46:16;5.05;;;2.40;;
42912;SDS011;50720;54.324;18.558;2023-12-29T02:48:59;4.45;;;1.75;;
42912;SDS011;50720;54.324;18.558;2023-12-29T02:51:43;4.70;;;2.60;;
42912;SDS011;50720;54.324;18.558;2023-12-29T02:54:29;4.22;;;1.70;;
42912;SDS011;50720;54.324;18.558;2023-12-29T02:57:13;5.32;;;2.50;;
42912;SDS011;50720;54.324;18.558;2023-12-29T02:59:58;5.88;;;2.30;;
42912;SDS011;50720;54.324;18.558;2023-12-29T03:02:42;4.82;;;2.38;;
42912;SDS011;50720;54.324;18.558;2023-12-29T03:05:26;5.90;;;2.47;;
42912;SDS011;50720;54.324;18.558;2023-12-29T03:08:10;5.05;;;2.08;;
42912;SDS011;50720;54.324;18.558;2023-12-29T03:10:53;5.70;;;2.15;;
42912;SDS011;50720;54.324;18.558;2023-12-29T03:13:37;6.75;;;1.70;;
42912;SDS011;50720;54.324;18.558;2023-12-29T03:16:22;4.85;;;2.25;;
42912;SDS011;50720;54.324;18.558;2023-12-29T03:19:06;7.15;;;3.75;;
42912;SDS011;50720;54.324;18.558;2023-12-29T03:21:50;6.25;;;2.45;;
42912;SDS011;50720;54.324;18.558;2023-12-29T03:24:36;5.85;;;2.15;;
42912;SDS011;50720;54.324;18.558;2023-12-29T03:27:20;5.22;;;2.13;;
42912;SDS011;50720;54.324;18.558;2023-12-29T03:30:04;4.03;;;2.00;;
42912;SDS011;50720;54.324;18.558;2023-12-29T03:32:50;3.70;;;1.92;;
42912;SDS011;50720;54.324;18.558;2023-12-29T03:35:33;3.72;;;1.73;;
42912;SDS011;50720;54.324;18.558;2023-12-29T03:38:17;2.88;;;1.70;;
42912;SDS011;50720;54.324;18.558;2023-12-29T03:41:01;5.05;;;1.90;;
42912;SDS011;50720;54.324;18.558;2023-12-29T03:43:45;4.45;;;2.05;;
42912;SDS011;50720;54.324;18.558;2023-12-29T03:46:28;5.57;;;2.00;;
42912;SDS011;50720;54.324;18.558;2023-12-29T03:49:13;4.65;;;2.38;;
42912;SDS011;50720;54.324;18.558;2023-12-29T03:51:57;3.55;;;1.83;;
42912;SDS011;50720;54.324;18.558;2023-12-29T03:54:40;7.45;;;2.33;;
42912;SDS011;50720;54.324;18.558;2023-12-29T03:57:24;4.00;;;1.98;;
42912;SDS011;50720;54.324;18.558;2023-12-29T04:00:11;4.28;;;1.98;;
42912;SDS011;50720;54.324;18.558;2023-12-29T04:02:55;3.42;;;2.05;;
42912;SDS011;50720;54.324;18.558;2023-12-29T04:05:40;5.15;;;2.65;;
42912;SDS011;50720;54.324;18.558;2023-12-29T04:08:24;5.88;;;2.13;;
42912;SDS011;50720;54.324;18.558;2023-12-29T04:11:06;3.30;;;2.15;;
42912;SDS011;50720;54.324;18.558;2023-12-29T04:13:52;5.07;;;2.38;;
42912;SDS011;50720;54.324;18.558;2023-12-29T04:16:36;3.08;;;2.08;;
42912;SDS011;50720;54.324;18.558;2023-12-29T04:19:20;3.30;;;1.80;;
42912;SDS011;50720;54.324;18.558;2023-12-29T04:22:06;2.78;;;1.92;;
42912;SDS011;50720;54.324;18.558;2023-12-29T04:24:49;6.43;;;2.25;;
42912;SDS011;50720;54.324;18.558;2023-12-29T04:27:33;5.47;;;1.60;;
42912;SDS011;50720;54.324;18.558;2023-12-29T04:30:16;5.78;;;1.90;;
42912;SDS011;50720;54.324;18.558;2023-12-29T04:33:00;7.32;;;2.88;;
42912;SDS011;50720;54.324;18.558;2023-12-29T04:35:44;2.83;;;1.85;;
42912;SDS011;50720;54.324;18.558;2023-12-29T04:38:29;4.75;;;1.85;;
42912;SDS011;50720;54.324;18.558;2023-12-29T04:41:13;2.70;;;1.85;;
42912;SDS011;50720;54.324;18.558;2023-12-29T04:43:57;3.13;;;2.05;;
42912;SDS011;50720;54.324;18.558;2023-12-29T04:46:41;5.18;;;1.77;;
42912;SDS011;50720;54.324;18.558;2023-12-29T04:49:25;6.00;;;1.90;;
42912;SDS011;50720;54.324;18.558;2023-12-29T04:52:09;3.55;;;2.00;;
42912;SDS011;50720;54.324;18.558;2023-12-29T04:54:54;5.20;;;1.88;;
42912;SDS011;50720;54.324;18.558;2023-12-29T04:57:38;4.72;;;2.00;;
42912;SDS011;50720;54.324;18.558;2023-12-29T05:00:22;5.60;;;1.92;;
42912;SDS011;50720;54.324;18.558;2023-12-29T05:03:06;3.97;;;2.10;;
42912;SDS011;50720;54.324;18.558;2023-12-29T05:05:50;3.60;;;2.10;;
42912;SDS011;50720;54.324;18.558;2023-12-29T05:08:34;3.47;;;1.98;;
42912;SDS011;50720;54.324;18.558;2023-12-29T05:11:19;8.32;;;2.17;;
42912;SDS011;50720;54.324;18.558;2023-12-29T05:14:03;3.58;;;1.65;;
42912;SDS011;50720;54.324;18.558;2023-12-29T05:16:46;5.40;;;2.05;;
42912;SDS011;50720;54.324;18.558;2023-12-29T05:19:30;2.05;;;1.48;;
42912;SDS011;50720;54.324;18.558;2023-12-29T05:22:13;8.88;;;1.80;;
42912;SDS011;50720;54.324;18.558;2023-12-29T05:24:59;3.50;;;1.55;;
42912;SDS011;50720;54.324;18.558;2023-12-29T05:27:44;6.82;;;1.58;;
42912;SDS011;50720;54.324;18.558;2023-12-29T05:30:28;3.05;;;1.60;;
42912;SDS011;50720;54.324;18.558;2023-12-29T05:33:13;3.58;;;1.42;;
42912;SDS011;50720;54.324;18.558;2023-12-29T05:35:56;3.33;;;1.70;;
42912;SDS011;50720;54.324;18.558;2023-12-29T05:38:40;3.22;;;1.92;;
42912;SDS011;50720;54.324;18.558;2023-12-29T05:41:28;5.55;;;2.00;;
42912;SDS011;50720;54.324;18.558;2023-12-29T05:44:14;4.82;;;2.17;;
42912;SDS011;50720;54.324;18.558;2023-12-29T05:46:58;4.47;;;1.05;;
42912;SDS011;50720;54.324;18.558;2023-12-29T05:49:41;3.78;;;1.27;;
42912;SDS011;50720;54.324;18.558;2023-12-29T05:52:25;5.32;;;1.83;;
42912;SDS011;50720;54.324;18.558;2023-12-29T05:55:10;5.07;;;1.60;;
42912;SDS011;50720;54.324;18.558;2023-12-29T05:57:53;2.05;;;1.10;;
42912;SDS011;50720;54.324;18.558;2023-12-29T06:00:39;4.78;;;1.73;;
42912;SDS011;50720;54.324;18.558;2023-12-29T06:03:23;3.25;;;1.38;;
42912;SDS011;50720;54.324;18.558;2023-12-29T06:06:07;1.80;;;1.05;;
42912;SDS011;50720;54.324;18.558;2023-12-29T06:08:50;2.35;;;1.33;;
42912;SDS011;50720;54.324;18.558;2023-12-29T06:11:34;2.72;;;2.08;;
42912;SDS011;50720;54.324;18.558;2023-12-29T06:14:18;4.55;;;1.27;;
42912;SDS011;50720;54.324;18.558;2023-12-29T06:17:03;3.08;;;1.10;;
42912;SDS011;50720;54.324;18.558;2023-12-29T06:19:46;5.82;;;1.10;;
42912;SDS011;50720;54.324;18.558;2023-12-29T06:22:30;2.10;;;1.40;;
42912;SDS011;50720;54.324;18.558;2023-12-29T06:25:14;4.22;;;1.50;;
42912;SDS011;50720;54.324;18.558;2023-12-29T06:27:58;5.30;;;1.30;;
42912;SDS011;50720;54.324;18.558;2023-12-29T06:30:42;1.85;;;1.20;;
42912;SDS011;50720;54.324;18.558;2023-12-29T06:33:27;4.03;;;1.38;;
42912;SDS011;50720;54.324;18.558;2023-12-29T06:36:11;3.63;;;2.22;;
42912;SDS011;50720;54.324;18.558;2023-12-29T06:38:55;3.95;;;1.08;;
42912;SDS011;50720;54.324;18.558;2023-12-29T06:41:39;6.05;;;2.05;;
42912;SDS011;50720;54.324;18.558;2023-12-29T06:44:23;3.83;;;1.65;;
42912;SDS011;50720;54.324;18.558;2023-12-29T06:47:06;3.28;;;1.48;;
42912;SDS011;50720;54.324;18.558;2023-12-29T06:49:52;3.40;;;1.80;;
42912;SDS011;50720;54.324;18.558;2023-12-29T06:52:36;2.42;;;1.42;;
42912;SDS011;50720;54.324;18.558;2023-12-29T06:55:19;4.25;;;1.65;;
42912;SDS011;50720;54.324;18.558;2023-12-29T06:58:03;4.18;;;1.70;;
42912;SDS011;50720;54.324;18.558;2023-12-29T07:00:47;6.35;;;1.55;;
42912;SDS011;50720;54.324;18.558;2023-12-29T07:03:31;8.93;;;1.85;;
42912;SDS011;50720;54.324;18.558;2023-12-29T07:06:16;3.78;;;1.73;;
42912;SDS011;50720;54.324;18.558;2023-12-29T07:09:00;2.05;;;1.10;;
42912;SDS011;50720;54.324;18.558;2023-12-29T07:11:46;3.15;;;1.25;;
42912;SDS011;50720;54.324;18.558;2023-12-29T07:14:31;1.52;;;1.13;;
42912;SDS011;50720;54.324;18.558;2023-12-29T07:17:15;3.17;;;1.17;;
42912;SDS011;50720;54.324;18.558;2023-12-29T07:19:59;3.60;;;1.25;;
42912;SDS011;50720;54.324;18.558;2023-12-29T07:22:44;3.42;;;1.52;;
42912;SDS011;50720;54.324;18.558;2023-12-29T07:25:28;2.45;;;1.17;;
42912;SDS011;50720;54.324;18.558;2023-12-29T07:28:11;7.63;;;1.80;;
42912;SDS011;50720;54.324;18.558;2023-12-29T07:30:55;4.60;;;1.20;;
42912;SDS011;50720;54.324;18.558;2023-12-29T07:33:39;3.00;;;1.65;;
42912;SDS011;50720;54.324;18.558;2023-12-29T07:36:23;2.08;;;1.13;;
42912;SDS011;50720;54.324;18.558;2023-12-29T07:39:08;8.77;;;2.72;;
42912;SDS011;50720;54.324;18.558;2023-12-29T07:41:51;3.95;;;1.90;;
42912;SDS011;50720;54.324;18.558;2023-12-29T07:44:35;3.05;;;1.42;;
42912;SDS011;50720;54.324;18.558;2023-12-29T07:47:18;4.85;;;1.65;;
42912;SDS011;50720;54.324;18.558;2023-12-29T07:50:02;3.30;;;1.60;;
42912;SDS011;50720;54.324;18.558;2023-12-29T07:52:47;3.25;;;1.90;;
42912;SDS011;50720;54.324;18.558;2023-12-29T07:55:32;6.38;;;1.88;;
42912;SDS011;50720;54.324;18.558;2023-12-29T07:58:19;1.73;;;1.42;;
42912;SDS011;50720;54.324;18.558;2023-12-29T08:01:03;2.75;;;1.30;;
42912;SDS011;50720;54.324;18.558;2023-12-29T08:03:48;7.00;;;3.08;;
42912;SDS011;50720;54.324;18.558;2023-12-29T08:06:31;3.97;;;1.20;;
42912;SDS011;50720;54.324;18.558;2023-12-29T08:09:15;3.58;;;2.08;;
42912;SDS011;50720;54.324;18.558;2023-12-29T08:12:00;3.95;;;1.77;;
42912;SDS011;50720;54.324;18.558;2023-12-29T08:14:44;3.58;;;2.25;;
42912;SDS011;50720;54.324;18.558;2023-12-29T08:17:27;3.03;;;1.65;;
42912;SDS011;50720;54.324;18.558;2023-12-29T08:20:12;4.85;;;1.45;;
42912;SDS011;50720;54.324;18.558;2023-12-29T08:22:56;2.53;;;1.27;;
42912;SDS011;50720;54.324;18.558;2023-12-29T08:25:40;3.60;;;2.00;;
42912;SDS011;50720;54.324;18.558;2023-12-29T08:28:25;2.45;;;1.35;;
42912;SDS011;50720;54.324;18.558;2023-12-29T08:31:08;3.33;;;1.25;;
42912;SDS011;50720;54.324;18.558;2023-12-29T08:33:52;3.45;;;1.85;;
42912;SDS011;50720;54.324;18.558;2023-12-29T08:36:36;3.50;;;1.67;;
42912;SDS011;50720;54.324;18.558;2023-12-29T08:39:20;2.13;;;1.23;;
42912;SDS011;50720;54.324;18.558;2023-12-29T08:42:03;4.13;;;1.65;;
42912;SDS011;50720;54.324;18.558;2023-12-29T08:44:49;3.53;;;1.90;;
42912;SDS011;50720;54.324;18.558;2023-12-29T08:47:32;5.75;;;1.35;;
42912;SDS011;50720;54.324;18.558;2023-12-29T08:50:16;3.85;;;1.42;;
42912;SDS011;50720;54.324;18.558;2023-12-29T08:52:59;3.50;;;1.30;;
42912;SDS011;50720;54.324;18.558;2023-12-29T08:55:43;3.25;;;1.58;;
42912;SDS011;50720;54.324;18.558;2023-12-29T08:58:27;1.90;;;1.35;;
42912;SDS011;50720;54.324;18.558;2023-12-29T09:01:12;4.13;;;1.23;;
42912;SDS011;50720;54.324;18.558;2023-12-29T09:03:56;3.80;;;1.55;;
42912;SDS011;50720;54.324;18.558;2023-12-29T09:06:40;3.63;;;1.70;;
42912;SDS011;50720;54.324;18.558;2023-12-29T09:09:24;4.50;;;1.40;;
42912;SDS011;50720;54.324;18.558;2023-12-29T09:12:08;7.07;;;1.90;;
42912;SDS011;50720;54.324;18.558;2023-12-29T09:14:52;3.42;;;1.45;;
42912;SDS011;50720;54.324;18.558;2023-12-29T09:17:36;2.75;;;1.65;;
42912;SDS011;50720;54.324;18.558;2023-12-29T09:20:20;6.15;;;1.50;;
42912;SDS011;50720;54.324;18.558;2023-12-29T09:23:04;5.63;;;2.22;;
42912;SDS011;50720;54.324;18.558;2023-12-29T09:25:48;3.72;;;1.67;;
42912;SDS011;50720;54.324;18.558;2023-12-29T09:28:32;5.10;;;1.42;;
42912;SDS011;50720;54.324;18.558;2023-12-29T09:31:16;3.72;;;1.60;;
42912;SDS011;50720;54.324;18.558;2023-12-29T09:34:02;4.38;;;1.45;;
42912;SDS011;50720;54.324;18.558;2023-12-29T09:36:46;5.55;;;1.52;;
42912;SDS011;50720;54.324;18.558;2023-12-29T09:39:29;14.82;;;2.80;;
42912;SDS011;50720;54.324;18.558;2023-12-29T09:42:16;3.17;;;1.42;;
42912;SDS011;50720;54.324;18.558;2023-12-29T09:45:05;4.75;;;2.03;;
42912;SDS011;50720;54.324;18.558;2023-12-29T09:47:52;7.28;;;2.05;;
42912;SDS011;50720;54.324;18.558;2023-12-29T09:50:39;3.65;;;1.52;;
42912;SDS011;50720;54.324;18.558;2023-12-29T09:53:24;5.05;;;2.38;;
42912;SDS011;50720;54.324;18.558;2023-12-29T09:56:09;7.00;;;2.20;;
42912;SDS011;50720;54.324;18.558;2023-12-29T09:58:54;2.80;;;2.10;;
42912;SDS011;50720;54.324;18.558;2023-12-29T10:01:39;8.13;;;1.90;;
42912;SDS011;50720;54.324;18.558;2023-12-29T10:04:24;6.40;;;1.92;;
42912;SDS011;50720;54.324;18.558;2023-12-29T10:07:10;5.32;;;1.92;;
42912;SDS011;50720;54.324;18.558;2023-12-29T10:09:59;3.28;;;1.63;;
42912;SDS011;50720;54.324;18.558;2023-12-29T10:12:44;3.83;;;2.05;;
42912;SDS011;50720;54.324;18.558;2023-12-29T10:15:32;6.35;;;2.10;;
42912;SDS011;50720;54.324;18.558;2023-12-29T10:18:19;2.88;;;1.63;;
42912;SDS011;50720;54.324;18.558;2023-12-29T10:21:07;5.35;;;1.80;;
42912;SDS011;50720;54.324;18.558;2023-12-29T10:23:56;2.53;;;1.65;;
42912;SDS011;50720;54.324;18.558;2023-12-29T10:26:47;7.00;;;2.60;;
42912;SDS011;50720;54.324;18.558;2023-12-29T10:29:33;4.53;;;2.30;;
42912;SDS011;50720;54.324;18.558;2023-12-29T10:32:19;7.05;;;2.00;;
42912;SDS011;50720;54.324;18.558;2023-12-29T10:35:12;5.60;;;1.70;;
42912;SDS011;50720;54.324;18.558;2023-12-29T10:38:03;3.55;;;1.48;;
42912;SDS011;50720;54.324;18.558;2023-12-29T10:40:53;3.95;;;2.05;;
42912;SDS011;50720;54.324;18.558;2023-12-29T10:43:36;7.93;;;1.83;;
42912;SDS011;50720;54.324;18.558;2023-12-29T10:46:20;3.33;;;1.67;;
42912;SDS011;50720;54.324;18.558;2023-12-29T10:49:07;3.20;;;1.08;;
42912;SDS011;50720;54.324;18.558;2023-12-29T10:51:52;2.83;;;1.02;;
42912;SDS011;50720;54.324;18.558;2023-12-29T10:54:36;3.42;;;1.23;;
42912;SDS011;50720;54.324;18.558;2023-12-29T10:57:22;2.60;;;1.20;;
42912;SDS011;50720;54.324;18.558;2023-12-29T11:00:05;4.63;;;1.40;;
42912;SDS011;50720;54.324;18.558;2023-12-29T11:02:53;4.00;;;0.65;;
42912;SDS011;50720;54.324;18.558;2023-12-29T11:05:37;1.00;;;0.80;;
42912;SDS011;50720;54.324;18.558;2023-12-29T11:08:21;5.30;;;1.65;;
42912;SDS011;50720;54.324;18.558;2023-12-29T11:11:05;5.10;;;1.42;;
42912;SDS011;50720;54.324;18.558;2023-12-29T11:13:52;2.33;;;1.02;;
42912;SDS011;50720;54.324;18.558;2023-12-29T11:16:36;2.53;;;1.08;;
42912;SDS011;50720;54.324;18.558;2023-12-29T11:19:20;2.22;;;1.00;;
42912;SDS011;50720;54.324;18.558;2023-12-29T11:22:04;4.10;;;1.05;;
42912;SDS011;50720;54.324;18.558;2023-12-29T11:24:49;4.75;;;1.08;;
42912;SDS011;50720;54.324;18.558;2023-12-29T11:27:33;0.70;;;0.70;;
42912;SDS011;50720;54.324;18.558;2023-12-29T11:30:18;2.72;;;0.90;;
42912;SDS011;50720;54.324;18.558;2023-12-29T11:33:02;2.35;;;0.98;;
42912;SDS011;50720;54.324;18.558;2023-12-29T11:35:47;3.85;;;1.50;;
42912;SDS011;50720;54.324;18.558;2023-12-29T11:38:44;3.72;;;1.85;;
42912;SDS011;50720;54.324;18.558;2023-12-29T11:41:32;2.08;;;0.77;;
42912;SDS011;50720;54.324;18.558;2023-12-29T11:44:24;3.92;;;0.93;;
42912;SDS011;50720;54.324;18.558;2023-12-29T11:47:14;3.08;;;0.70;;
42912;SDS011;50720;54.324;18.558;2023-12-29T11:50:18;4.95;;;1.10;;
42912;SDS011;50720;54.324;18.558;2023-12-29T11:53:10;7.57;;;1.13;;
42912;SDS011;50720;54.324;18.558;2023-12-29T11:56:14;4.78;;;1.42;;
42912;SDS011;50720;54.324;18.558;2023-12-29T11:59:11;3.78;;;0.85;;
42912;SDS011;50720;54.324;18.558;2023-12-29T12:01:57;6.38;;;1.35;;
42912;SDS011;50720;54.324;18.558;2023-12-29T12:04:43;5.88;;;1.67;;
42912;SDS011;50720;54.324;18.558;2023-12-29T12:10:39;5.53;;;1.60;;
42912;SDS011;50720;54.324;18.558;2023-12-29T12:13:42;7.00;;;1.00;;
42912;SDS011;50720;54.324;18.558;2023-12-29T12:19:33;8.65;;;2.20;;
42912;SDS011;50720;54.324;18.558;2023-12-29T12:22:18;9.40;;;1.55;;
42912;SDS011;50720;54.324;18.558;2023-12-29T12:25:05;10.95;;;1.40;;
42912;SDS011;50720;54.324;18.558;2023-12-29T12:27:49;4.45;;;1.17;;
42912;SDS011;50720;54.324;18.558;2023-12-29T12:30:34;5.95;;;2.55;;
42912;SDS011;50720;54.324;18.558;2023-12-29T12:33:18;9.10;;;1.55;;
42912;SDS011;50720;54.324;18.558;2023-12-29T12:36:01;5.88;;;1.48;;
42912;SDS011;50720;54.324;18.558;2023-12-29T12:38:51;6.25;;;1.10;;
42912;SDS011;50720;54.324;18.558;2023-12-29T12:41:35;2.67;;;0.93;;
42912;SDS011;50720;54.324;18.558;2023-12-29T12:44:19;6.28;;;1.42;;
42912;SDS011;50720;54.324;18.558;2023-12-29T12:47:06;5.53;;;1.02;;
42912;SDS011;50720;54.324;18.558;2023-12-29T12:49:52;2.33;;;0.82;;
42912;SDS011;50720;54.324;18.558;2023-12-29T12:52:36;2.40;;;1.00;;
42912;SDS011;50720;54.324;18.558;2023-12-29T12:55:21;2.95;;;1.77;;
42912;SDS011;50720;54.324;18.558;2023-12-29T12:58:05;6.05;;;0.82;;
42912;SDS011;50720;54.324;18.558;2023-12-29T13:00:49;2.70;;;0.90;;
42912;SDS011;50720;54.324;18.558;2023-12-29T13:03:37;1.75;;;0.70;;
42912;SDS011;50720;54.324;18.558;2023-12-29T13:06:21;6.25;;;0.70;;
42912;SDS011;50720;54.324;18.558;2023-12-29T13:09:05;5.13;;;0.90;;
42912;SDS011;50720;54.324;18.558;2023-12-29T13:12:08;3.70;;;1.50;;
42912;SDS011;50720;54.324;18.558;2023-12-29T13:14:52;3.75;;;1.00;;
42912;SDS011;50720;54.324;18.558;2023-12-29T13:17:36;9.00;;;1.10;;
42912;SDS011;50720;54.324;18.558;2023-12-29T13:20:19;1.15;;;0.80;;
42912;SDS011;50720;54.324;18.558;2023-12-29T13:23:03;4.18;;;0.70;;
42912;SDS011;50720;54.324;18.558;2023-12-29T13:25:47;2.70;;;0.70;;
42912;SDS011;50720;54.324;18.558;2023-12-29T13:28:33;2.75;;;1.10;;
42912;SDS011;50720;54.324;18.558;2023-12-29T13:31:20;1.63;;;0.65;;
42912;SDS011;50720;54.324;18.558;2023-12-29T13:34:05;4.60;;;1.10;;
42912;SDS011;50720;54.324;18.558;2023-12-29T13:36:50;1.95;;;0.68;;
42912;SDS011;50720;54.324;18.558;2023-12-29T13:39:36;1.40;;;0.50;;
42912;SDS011;50720;54.324;18.558;2023-12-29T13:42:21;2.58;;;0.88;;
42912;SDS011;50720;54.324;18.558;2023-12-29T13:45:09;3.90;;;0.77;;
42912;SDS011;50720;54.324;18.558;2023-12-29T13:47:53;0.98;;;0.65;;
42912;SDS011;50720;54.324;18.558;2023-12-29T13:50:38;3.00;;;0.90;;
42912;SDS011;50720;54.324;18.558;2023-12-29T13:53:22;3.40;;;1.23;;
42912;SDS011;50720;54.324;18.558;2023-12-29T13:56:06;1.45;;;0.80;;
42912;SDS011;50720;54.324;18.558;2023-12-29T13:58:51;3.75;;;1.17;;
42912;SDS011;50720;54.324;18.558;2023-12-29T14:01:36;2.92;;;1.10;;
42912;SDS011;50720;54.324;18.558;2023-12-29T14:04:20;3.55;;;1.00;;
42912;SDS011;50720;54.324;18.558;2023-12-29T14:07:04;3.67;;;1.40;;
42912;SDS011;50720;54.324;18.558;2023-12-29T14:09:53;1.40;;;1.15;;
42912;SDS011;50720;54.324;18.558;2023-12-29T14:12:37;3.40;;;1.10;;
42912;SDS011;50720;54.324;18.558;2023-12-29T14:15:21;3.33;;;1.65;;
42912;SDS011;50720;54.324;18.558;2023-12-29T14:18:07;4.93;;;0.90;;
42912;SDS011;50720;54.324;18.558;2023-12-29T14:21:20;4.50;;;1.73;;
42912;SDS011;50720;54.324;18.558;2023-12-29T14:24:07;6.70;;;1.10;;
42912;SDS011;50720;54.324;18.558;2023-12-29T14:26:56;4.22;;;1.50;;
42912;SDS011;50720;54.324;18.558;2023-12-29T14:29:41;5.90;;;1.60;;
42912;SDS011;50720;54.324;18.558;2023-12-29T14:32:25;4.80;;;1.85;;
42912;SDS011;50720;54.324;18.558;2023-12-29T14:35:12;7.40;;;1.63;;
42912;SDS011;50720;54.324;18.558;2023-12-29T14:37:56;3.95;;;1.42;;
42912;SDS011;50720;54.324;18.558;2023-12-29T14:40:41;7.70;;;1.98;;
42912;SDS011;50720;54.324;18.558;2023-12-29T14:43:25;3.45;;;1.27;;
42912;SDS011;50720;54.324;18.558;2023-12-29T14:46:08;2.70;;;1.08;;
42912;SDS011;50720;54.324;18.558;2023-12-29T14:48:52;3.80;;;1.90;;
42912;SDS011;50720;54.324;18.558;2023-12-29T14:51:38;3.80;;;1.65;;
42912;SDS011;50720;54.324;18.558;2023-12-29T14:54:22;5.90;;;1.70;;
42912;SDS011;50720;54.324;18.558;2023-12-29T14:57:05;8.95;;;2.15;;
42912;SDS011;50720;54.324;18.558;2023-12-29T14:59:56;5.35;;;2.20;;
42912;SDS011;50720;54.324;18.558;2023-12-29T15:02:39;5.80;;;2.28;;
42912;SDS011;50720;54.324;18.558;2023-12-29T15:05:25;6.65;;;2.58;;
42912;SDS011;50720;54.324;18.558;2023-12-29T15:08:10;8.98;;;3.15;;
42912;SDS011;50720;54.324;18.558;2023-12-29T15:10:54;4.38;;;2.13;;
42912;SDS011;50720;54.324;18.558;2023-12-29T15:13:37;6.20;;;2.10;;
42912;SDS011;50720;54.324;18.558;2023-12-29T15:16:21;7.45;;;2.58;;
42912;SDS011;50720;54.324;18.558;2023-12-29T15:19:05;5.97;;;2.15;;
42912;SDS011;50720;54.324;18.558;2023-12-29T15:21:50;6.82;;;2.45;;
42912;SDS011;50720;54.324;18.558;2023-12-29T15:24:36;8.25;;;2.30;;
42912;SDS011;50720;54.324;18.558;2023-12-29T15:27:20;8.40;;;2.30;;
42912;SDS011;50720;54.324;18.558;2023-12-29T15:30:04;5.45;;;2.38;;
42912;SDS011;50720;54.324;18.558;2023-12-29T15:32:48;5.03;;;2.00;;
42912;SDS011;50720;54.324;18.558;2023-12-29T15:35:31;6.85;;;2.03;;
42912;SDS011;50720;54.324;18.558;2023-12-29T15:38:15;5.55;;;2.15;;
42912;SDS011;50720;54.324;18.558;2023-12-29T15:41:02;4.38;;;1.83;;
42912;SDS011;50720;54.324;18.558;2023-12-29T15:43:46;13.73;;;1.70;;
42912;SDS011;50720;54.324;18.558;2023-12-29T15:46:31;5.38;;;1.60;;
42912;SDS011;50720;54.324;18.558;2023-12-29T15:49:14;5.90;;;1.70;;
42912;SDS011;50720;54.324;18.558;2023-12-29T15:51:58;4.05;;;1.55;;
42912;SDS011;50720;54.324;18.558;2023-12-29T15:54:42;7.80;;;1.92;;
42912;SDS011;50720;54.324;18.558;2023-12-29T15:57:27;6.68;;;2.22;;
42912;SDS011;50720;54.324;18.558;2023-12-29T16:00:11;5.90;;;1.95;;
42912;SDS011;50720;54.324;18.558;2023-12-29T16:02:56;3.40;;;1.77;;
42912;SDS011;50720;54.324;18.558;2023-12-29T16:05:40;4.93;;;1.77;;
42912;SDS011;50720;54.324;18.558;2023-12-29T16:08:23;4.97;;;1.80;;
42912;SDS011;50720;54.324;18.558;2023-12-29T16:11:17;5.72;;;1.70;;
42912;SDS011;50720;54.324;18.558;2023-12-29T16:14:03;5.07;;;2.08;;
42912;SDS011;50720;54.324;18.558;2023-12-29T16:16:46;8.23;;;1.67;;
42912;SDS011;50720;54.324;18.558;2023-12-29T16:19:29;3.53;;;1.65;;
42912;SDS011;50720;54.324;18.558;2023-12-29T16:22:13;7.07;;;1.77;;
42912;SDS011;50720;54.324;18.558;2023-12-29T16:24:57;10.18;;;2.22;;